Hastings, New Zealand
Current Conditions -  °F | °C
As of 6:30 AM on Saturday 25 Oct 2014 (Local Time) from NZWN Reporting Station
Clear Clear  
Wind Chill: 50°   Ceiling: Unl
Heat Index: 50°   Visibility: 6mi
Dew Point: 39°   Wind: 14mph
Humidity: 66%   Direction: 190°S
Pressure: 30.24"   Gusts: NA
Location:  39.64°S, 176.84°E
Report Text: NZWN 241830Z AUTO 19012KT 9999 NCD 10/04 Q1024 NOSIG
Loading
Personal Weather Stations






























Interactive Weather Map
Tropical Storm Tracking
New forecast layout! Learn more

10-Day Weather Forecast

Advertisements
Track Severe Weather on mobile